Time;durP1;ratioP1;P1;durP2;ratioP2;P2;SDS_P1;SDS_P2;PMS_P1;PMS_P2;Temp;Humidity;BMP_temperature;BMP_pressure;BME280_temperature;BME280_humidity;BME280_pressure;Samples;Min_cycle;Max_cycle;Signal;HPM_P1;HPM_P2
2023/07/08 00:00:50;;;;;;;18.97;16.97;;;;;;;20.93;89.72;95145.97;5116149;28;20443;-79
2023/07/08 00:03:17;;;;;;;21.97;16.20;;;;;;;20.89;90.07;95139.38;5116237;28;20436;-79
2023/07/08 00:05:45;;;;;;;22.87;16.93;;;;;;;20.85;90.11;95137.28;5116048;28;20453;-79
2023/07/08 00:08:13;;;;;;;18.40;16.43;;;;;;;20.79;90.03;95130.81;5115668;28;20441;-79
2023/07/08 00:10:40;;;;;;;22.13;18.00;;;;;;;20.71;90.65;95128.25;5116677;28;20447;-80
2023/07/08 00:13:09;;;;;;;21.43;17.37;;;;;;;20.74;91.26;95130.56;5116483;28;20881;-81
2023/07/08 00:15:37;;;;;;;27.53;18.10;;;;;;;20.66;91.02;95120.81;5117020;28;20847;-81
2023/07/08 00:18:11;;;;;;;24.20;17.80;;;;;;;20.64;90.85;95127.34;5117572;28;20439;-79
2023/07/08 00:20:41;;;;;;;24.53;19.50;;;;;;;20.68;91.35;95121.47;5116293;28;20452;-79
2023/07/08 00:23:09;;;;;;;22.20;19.73;;;;;;;20.69;90.68;95114.28;5116385;28;20864;-82
2023/07/08 00:25:36;;;;;;;20.77;18.70;;;;;;;20.72;90.84;95113.91;5116207;28;20451;-79
2023/07/08 00:28:03;;;;;;;20.67;18.23;;;;;;;20.64;90.48;95109.53;5115657;28;20435;-80
2023/07/08 00:30:31;;;;;;;22.70;19.30;;;;;;;20.62;90.55;95116.06;5115681;28;20783;-81
2023/07/08 00:32:59;;;;;;;24.77;19.00;;;;;;;20.64;90.36;95109.53;5116838;28;20450;-79
2023/07/08 00:35:32;;;;;;;24.23;20.70;;;;;;;20.60;90.64;95116.25;5096206;28;20498;-79
2023/07/08 00:38:01;;;;;;;23.00;19.70;;;;;;;20.50;91.07;95121.00;5115486;28;20431;-79
2023/07/08 00:40:30;;;;;;;24.67;19.37;;;;;;;20.50;91.56;95109.53;5115299;28;20448;-80
2023/07/08 00:42:58;;;;;;;24.50;19.00;;;;;;;20.51;91.16;95108.50;5115462;28;20468;-79
2023/07/08 00:45:40;;;;;;;21.33;19.23;;;;;;;20.52;91.62;95111.00;5115197;28;20441;-79
2023/07/08 00:48:19;;;;;;;20.07;17.67;;;;;;;20.52;91.30;95105.66;5115420;28;20464;-80
2023/07/08 00:50:48;;;;;;;22.60;18.13;;;;;;;20.54;91.09;95109.00;5115097;28;20810;-80
2023/07/08 00:53:33;;;;;;;22.30;19.97;;;;;;;20.53;91.16;95107.34;5115554;28;20474;-80
2023/07/08 00:56:03;;;;;;;22.03;19.77;;;;;;;20.52;91.37;95099.50;5114744;28;20485;-79
2023/07/08 00:58:36;;;;;;;21.00;18.90;;;;;;;20.58;91.27;95096.94;5114826;28;20901;-79
2023/07/08 01:01:07;;;;;;;20.43;17.97;;;;;;;20.49;91.88;95098.03;5115036;28;20465;-79
2023/07/08 01:03:40;;;;;;;20.20;18.10;;;;;;;20.52;91.33;95091.50;5101004;28;20451;-81
2023/07/08 01:06:09;;;;;;;23.53;17.70;;;;;;;20.37;91.24;95063.00;5116070;28;20444;-79
2023/07/08 01:08:36;;;;;;;23.50;19.50;;;;;;;20.37;91.93;95080.84;5115587;28;20450;-79
2023/07/08 01:11:05;;;;;;;21.47;18.17;;;;;;;20.28;92.53;95077.44;5114956;28;20456;-78
2023/07/08 01:13:39;;;;;;;21.30;19.20;;;;;;;20.24;92.64;95067.31;5115205;28;20454;-79
2023/07/08 01:16:07;;;;;;;23.37;20.77;;;;;;;20.20;92.88;95072.19;5114948;28;20907;-80
2023/07/08 01:18:35;;;;;;;20.03;18.07;;;;;;;20.17;93.26;95067.25;5114830;28;20446;-78
2023/07/08 01:21:06;;;;;;;21.30;18.83;;;;;;;20.10;93.80;95063.66;5114520;28;20443;-79
2023/07/08 01:23:36;;;;;;;22.13;17.73;;;;;;;20.15;93.49;95074.59;5114942;28;20909;-79
2023/07/08 01:26:03;;;;;;;21.17;17.70;;;;;;;20.11;93.71;95075.97;5114482;28;20486;-79
2023/07/08 01:28:31;;;;;;;23.87;17.97;;;;;;;20.06;94.03;95081.03;5114671;28;20462;-80
2023/07/08 01:30:58;;;;;;;20.13;17.37;;;;;;;20.04;94.46;95077.72;5114535;28;20445;-79
2023/07/08 01:33:25;;;;;;;19.80;17.03;;;;;;;20.02;94.44;95067.25;5114411;28;20450;-80
2023/07/08 01:35:53;;;;;;;24.07;19.00;;;;;;;20.03;94.93;95066.25;5114053;28;20560;-79
2023/07/08 01:38:26;;;;;;;20.40;18.50;;;;;;;20.00;94.44;95065.78;5114534;28;20451;-80
2023/07/08 01:40:55;;;;;;;20.70;17.77;;;;;;;19.93;94.64;95059.53;5114067;28;20531;-81
2023/07/08 01:43:22;;;;;;;19.70;17.90;;;;;;;19.96;94.60;95067.16;5114289;28;20452;-81
2023/07/08 01:45:52;;;;;;;20.63;18.30;;;;;;;20.00;94.16;95071.13;5113874;28;20455;-81
2023/07/08 01:48:22;;;;;;;21.50;17.60;;;;;;;19.99;94.73;95069.47;5113855;28;20443;-81
2023/07/08 01:50:55;;;;;;;19.87;17.87;;;;;;;20.07;93.98;95066.69;5113801;28;20431;-79
2023/07/08 01:53:28;;;;;;;21.17;18.00;;;;;;;20.13;93.67;95065.97;5061946;28;20450;-80
2023/07/08 01:55:56;;;;;;;19.80;17.70;;;;;;;20.18;93.41;95066.22;5113709;28;20509;-79
2023/07/08 01:58:23;;;;;;;20.03;17.97;;;;;;;20.18;92.74;95063.56;5113899;28;20454;-79
2023/07/08 02:00:51;;;;;;;18.53;16.73;;;;;;;20.18;93.16;95062.75;5113692;28;20443;-79
2023/07/08 02:03:18;;;;;;;18.67;16.77;;;;;;;20.23;92.64;95074.50;5113904;28;20441;-79
2023/07/08 02:05:45;;;;;;;20.07;17.97;;;;;;;20.26;92.37;95073.31;5113862;28;20443;-80
2023/07/08 02:08:12;;;;;;;18.07;16.20;;;;;;;20.22;92.27;95070.16;5113589;28;20534;-79
2023/07/08 02:10:40;;;;;;;18.33;16.43;;;;;;;20.13;93.30;95076.63;5061294;28;20450;-80
2023/07/08 02:13:08;;;;;;;29.47;16.90;;;;;;;20.14;92.80;95077.44;5112929;28;20454;-79
2023/07/08 02:15:35;;;;;;;19.27;16.50;;;;;;;20.08;93.03;95071.03;5113895;28;20444;-80
2023/07/08 02:18:02;;;;;;;19.13;17.23;;;;;;;20.08;93.54;95073.69;5113548;28;20819;-76
2023/07/08 02:20:29;;;;;;;17.70;15.80;;;;;;;20.06;93.31;95083.69;5113707;28;20451;-80
2023/07/08 02:22:55;;;;;;;19.53;16.27;;;;;;;20.07;93.38;95088.00;5113196;28;20813;-77
2023/07/08 02:25:22;;;;;;;18.23;16.33;;;;;;;20.06;93.97;95089.84;5116548;28;20448;-80
2023/07/08 02:27:49;;;;;;;17.37;15.70;;;;;;;20.05;93.64;95079.38;5115139;28;20446;-80
2023/07/08 02:30:17;;;;;;;18.07;16.33;;;;;;;19.99;93.74;95093.44;5114658;28;20455;-80
2023/07/08 02:32:56;;;;;;;19.20;17.20;;;;;;;20.01;93.85;95110.06;5114457;28;20446;-78
2023/07/08 02:35:23;;;;;;;17.17;15.50;;;;;;;19.98;94.16;95111.25;5114775;28;20479;-79
2023/07/08 02:37:50;;;;;;;18.60;16.60;;;;;;;19.89;94.66;95106.19;5114793;28;20847;-79
2023/07/08 02:40:17;;;;;;;17.50;14.83;;;;;;;19.85;94.59;95105.72;5114482;28;20450;-79
2023/07/08 02:42:44;;;;;;;16.70;14.93;;;;;;;19.86;94.91;95117.19;5113354;28;20441;-79
2023/07/08 02:45:12;;;;;;;19.20;17.23;;;;;;;19.80;94.97;95119.59;5061163;28;20956;-79
2023/07/08 02:47:40;;;;;;;16.60;15.10;;;;;;;19.80;95.07;95121.41;5113788;28;20442;-79
2023/07/08 02:50:09;;;;;;;18.90;16.93;;;;;;;19.80;94.74;95111.59;5113450;28;20533;-80
2023/07/08 02:52:36;;;;;;;18.50;15.97;;;;;;;19.83;95.14;95120.22;5060936;28;20436;-79
2023/07/08 02:55:03;;;;;;;19.13;17.33;;;;;;;19.77;94.80;95119.13;5113378;28;20458;-79
2023/07/08 02:57:30;;;;;;;26.90;16.30;;;;;;;19.69;94.96;95112.03;5113941;28;20486;-80
2023/07/08 02:59:57;;;;;;;18.93;17.07;;;;;;;19.83;95.10;95122.88;5113822;28;20441;-79
2023/07/08 03:02:24;;;;;;;19.60;17.60;;;;;;;19.87;94.80;95125.00;5113730;28;20439;-79
2023/07/08 03:04:54;;;;;;;29.90;18.47;;;;;;;19.89;94.62;95122.16;5113152;28;20444;-80
2023/07/08 03:07:20;;;;;;;22.33;16.57;;;;;;;19.91;94.54;95130.78;5113192;28;20481;-79
2023/07/08 03:09:47;;;;;;;17.93;15.87;;;;;;;19.83;93.84;95118.38;5113742;28;20440;-79
2023/07/08 03:12:14;;;;;;;19.33;17.30;;;;;;;19.87;93.99;95124.19;5113361;28;20451;-79
2023/07/08 03:14:41;;;;;;;22.37;16.80;;;;;;;19.84;94.29;95120.03;5113168;28;20483;-79
2023/07/08 03:17:08;;;;;;;17.83;15.30;;;;;;;19.82;95.05;95123.91;5112897;28;20986;-79
2023/07/08 03:19:34;;;;;;;17.53;15.77;;;;;;;19.85;94.92;95127.03;5113333;28;20468;-79
2023/07/08 03:22:05;;;;;;;18.13;16.43;;;;;;;19.85;94.70;95124.34;5113129;28;20780;-79
2023/07/08 03:24:32;;;;;;;19.80;15.50;;;;;;;19.92;94.82;95125.28;5113942;28;20456;-79
2023/07/08 03:27:00;;;;;;;17.37;15.67;;;;;;;19.98;94.40;95121.91;5116778;28;20446;-80
2023/07/08 03:29:27;;;;;;;19.70;16.03;;;;;;;20.08;93.93;95121.63;5117116;28;20473;-80
2023/07/08 03:31:55;;;;;;;19.07;15.77;;;;;;;20.26;92.91;95130.13;5116730;28;20439;-80
2023/07/08 03:34:22;;;;;;;23.10;15.40;;;;;;;20.52;91.84;95134.16;5116501;28;20530;-80
2023/07/08 03:36:51;;;;;;;16.73;14.90;;;;;;;20.78;90.63;95123.00;5116314;28;20496;-80
2023/07/08 03:39:20;;;;;;;14.70;13.27;;;;;;;21.01;88.62;95119.19;5116643;28;20431;-79
2023/07/08 03:41:48;;;;;;;13.90;12.50;;;;;;;21.38;87.01;95111.97;5116620;28;20961;-79
2023/07/08 03:44:16;;;;;;;13.77;12.47;;;;;;;21.62;85.19;95121.44;5116994;28;20465;-78
2023/07/08 03:46:45;;;;;;;12.27;11.13;;;;;;;21.92;84.63;95111.41;5116649;28;20476;-80
2023/07/08 03:49:13;;;;;;;14.00;12.17;;;;;;;22.21;82.37;95105.88;5116449;28;20440;-80
2023/07/08 03:51:41;;;;;;;12.40;11.20;;;;;;;;;;5116379;28;20977;-79
2023/07/08 03:54:12;;;;;;;14.83;11.87;;;;;;;22.53;81.19;95106.25;5116359;28;20813;-80
2023/07/08 03:56:40;;;;;;;12.93;11.50;;;;;;;22.81;79.86;95112.41;5116014;28;20481;-80
2023/07/08 03:59:07;;;;;;;16.60;11.30;;;;;;;22.97;78.58;95108.56;5116278;28;20448;-80
2023/07/08 04:01:34;;;;;;;16.13;11.70;;;;;;;22.82;77.68;95108.69;5116137;28;20450;-80
2023/07/08 04:04:01;;;;;;;14.70;11.03;;;;;;;22.72;78.03;95102.88;5116237;28;20507;-80
2023/07/08 04:06:29;;;;;;;13.70;12.33;;;;;;;22.69;78.20;95108.63;5115933;28;20531;-79
2023/07/08 04:08:56;;;;;;;12.20;11.10;;;;;;;22.70;79.43;95110.28;5115870;28;20473;-80
2023/07/08 04:11:24;;;;;;;10.83;9.83;;;;;;;22.77;79.54;95116.47;5116197;28;20457;-80
2023/07/08 04:13:52;;;;;;;11.53;10.23;;;;;;;22.86;78.02;95122.53;5115952;28;20440;-80
2023/07/08 04:16:23;;;;;;;10.40;9.50;;;;;;;22.93;78.14;95128.72;5116134;28;20514;-79
2023/07/08 04:18:53;;;;;;;12.60;9.93;;;;;;;22.91;77.88;95128.09;5116042;28;20455;-80
2023/07/08 04:21:20;;;;;;;11.40;10.20;;;;;;;22.79;78.51;95125.13;5115879;28;20875;-79
2023/07/08 04:23:47;;;;;;;11.00;9.80;;;;;;;22.83;78.06;95123.72;5116118;28;20451;-80
2023/07/08 04:26:14;;;;;;;12.63;9.87;;;;;;;22.88;77.87;95131.16;5116194;28;20450;-79
2023/07/08 04:28:42;;;;;;;11.03;10.00;;;;;;;23.01;77.82;95122.34;5115894;28;20448;-79
2023/07/08 04:31:12;;;;;;;14.57;10.10;;;;;;;23.18;78.32;95112.94;5115960;28;20449;-77
2023/07/08 04:33:39;;;;;;;11.10;10.00;;;;;;;23.51;76.93;95120.22;5115603;28;20943;-80
2023/07/08 04:36:10;;;;;;;11.00;9.90;;;;;;;23.66;75.53;95121.69;5115738;28;20483;-80
2023/07/08 04:38:37;;;;;;;14.30;9.30;;;;;;;23.83;74.51;95140.88;5115520;28;20978;-77
2023/07/08 04:41:05;;;;;;;13.07;10.47;;;;;;;24.06;74.77;95133.25;5079703;28;20441;-79
2023/07/08 04:43:32;;;;;;;10.47;9.47;;;;;;;24.24;72.20;95137.13;5115870;28;20460;-80
2023/07/08 04:45:59;;;;;;;13.27;11.00;;;;;;;24.41;71.63;95135.72;5115236;28;20961;-80
2023/07/08 04:48:27;;;;;;;9.93;8.83;;;;;;;24.49;71.22;95129.28;5115166;28;20543;-80
2023/07/08 04:50:54;;;;;;;11.50;10.30;;;;;;;24.43;70.56;95138.19;5115028;28;20445;-80
2023/07/08 04:53:21;;;;;;;11.27;10.17;;;;;;;24.56;70.59;95122.03;5115087;28;20445;-81
2023/07/08 04:55:52;;;;;;;11.57;10.50;;;;;;;24.28;70.36;95127.66;5115038;28;20445;-80
2023/07/08 04:58:19;;;;;;;10.03;9.13;;;;;;;24.19;71.77;95128.91;5115308;28;20488;-80
2023/07/08 05:00:46;;;;;;;12.60;11.30;;;;;;;23.86;72.63;95143.16;5114977;28;20446;-80
2023/07/08 05:03:13;;;;;;;11.47;10.47;;;;;;;23.62;73.56;95141.06;5079086;28;20450;-80
2023/07/08 05:05:41;;;;;;;11.17;10.07;;;;;;;23.82;73.40;95141.09;5115495;28;20453;-81
2023/07/08 05:08:08;;;;;;;10.97;9.57;;;;;;;23.80;72.88;95135.94;5114895;28;20438;-81
2023/07/08 05:10:35;;;;;;;11.00;10.10;;;;;;;23.30;74.43;95127.38;5079539;28;20451;-81
2023/07/08 05:13:02;;;;;;;12.13;9.93;;;;;;;23.28;74.55;95134.78;5114785;28;20454;-80
2023/07/08 05:15:29;;;;;;;11.17;10.20;;;;;;;23.12;75.71;95132.47;5114711;28;20449;-81
2023/07/08 05:17:56;;;;;;;12.03;10.83;;;;;;;22.89;76.90;95135.50;5114687;28;20480;-79
2023/07/08 05:20:23;;;;;;;11.80;10.60;;;;;;;22.61;78.11;95140.06;5114385;28;20812;-80
2023/07/08 05:22:51;;;;;;;11.93;10.73;;;;;;;22.78;77.33;95149.41;5114390;28;20448;-80
2023/07/08 05:25:20;;;;;;;21.13;10.13;;;;;;;22.97;77.05;95148.69;5114543;28;20459;-80
2023/07/08 05:27:48;;;;;;;15.00;11.80;;;;;;;23.20;75.72;95150.22;5114318;28;20448;-79
2023/07/08 05:30:16;;;;;;;11.33;10.00;;;;;;;23.41;74.35;95144.69;5114389;28;20468;-79
2023/07/08 05:32:43;;;;;;;10.20;8.93;;;;;;;23.45;73.80;95145.97;5114089;28;20443;-80
2023/07/08 05:35:10;;;;;;;11.73;9.27;;;;;;;23.67;71.93;95149.31;5114279;28;20485;-82
2023/07/08 05:37:37;;;;;;;10.87;9.87;;;;;;;23.96;72.53;95159.63;5113774;28;20481;-78
2023/07/08 05:40:06;;;;;;;10.97;9.80;;;;;;;24.04;71.91;95151.41;5114463;28;20456;-79
2023/07/08 05:42:33;;;;;;;9.43;8.47;;;;;;;24.35;70.73;95152.66;5114296;28;20472;-80
2023/07/08 05:45:00;;;;;;;13.63;9.83;;;;;;;24.53;68.67;95158.16;5113940;28;20457;-80
2023/07/08 05:47:27;;;;;;;9.90;9.00;;;;;;;24.61;69.38;95167.88;5113172;28;20446;-79
2023/07/08 05:49:54;;;;;;;8.50;7.80;;;;;;;24.84;68.02;95164.69;5114342;28;20445;-80
2023/07/08 05:52:21;;;;;;;8.93;8.03;;;;;;;25.14;67.56;95175.78;5114093;28;20445;-80
2023/07/08 05:54:48;;;;;;;8.83;7.93;;;;;;;25.30;66.83;95168.06;5113822;28;20447;-80
2023/07/08 05:57:16;;;;;;;12.43;10.50;;;;;;;25.66;65.50;95172.00;5114236;28;20505;-80
2023/07/08 05:59:43;;;;;;;8.40;7.33;;;;;;;25.75;64.54;95160.00;5114497;28;20458;-80
2023/07/08 06:02:11;;;;;;;9.60;8.67;;;;;;;25.29;65.25;95171.78;5114196;28;20539;-80
2023/07/08 06:04:38;;;;;;;10.40;8.80;;;;;;;25.14;66.67;95178.47;5113674;28;20937;-79
2023/07/08 06:07:06;;;;;;;9.67;7.90;;;;;;;25.08;66.16;95177.44;5113490;28;20451;-80
2023/07/08 06:09:33;;;;;;;8.90;8.03;;;;;;;25.02;66.14;95164.88;5061279;28;20439;-79
2023/07/08 06:12:00;;;;;;;10.20;8.43;;;;;;;25.14;65.64;95173.91;5113626;28;20454;-81
2023/07/08 06:14:28;;;;;;;8.23;7.47;;;;;;;25.29;66.01;95174.47;5113675;28;20795;-80
2023/07/08 06:16:55;;;;;;;9.23;8.13;;;;;;;25.07;66.46;95177.66;5113334;28;20455;-81
2023/07/08 06:19:22;;;;;;;8.80;8.00;;;;;;;24.62;68.38;95164.97;5113461;28;20864;-81
2023/07/08 06:21:49;;;;;;;11.53;9.50;;;;;;;24.36;69.39;95181.13;5113633;28;20443;-81
2023/07/08 06:24:16;;;;;;;11.43;8.60;;;;;;;24.05;70.58;95182.56;5113748;28;20451;-80
2023/07/08 06:26:43;;;;;;;9.47;8.50;;;;;;;23.97;71.05;95188.09;5113274;28;20446;-80
2023/07/08 06:29:10;;;;;;;10.17;9.27;;;;;;;24.28;71.52;95178.63;5113310;28;20474;-82
2023/07/08 06:31:38;;;;;;;8.53;7.73;;;;;;;24.64;69.44;95179.00;5112982;28;20925;-80
2023/07/08 06:34:05;;;;;;;9.70;8.73;;;;;;;24.93;68.29;95184.94;5113503;28;20458;-80
2023/07/08 06:36:32;;;;;;;9.67;8.70;;;;;;;24.88;67.85;95179.38;5113234;28;20474;-80
2023/07/08 06:38:59;;;;;;;10.10;8.07;;;;;;;24.52;67.84;95185.22;5113212;28;20486;-80
2023/07/08 06:41:26;;;;;;;9.80;8.60;;;;;;;24.14;69.87;95183.16;5113011;28;20453;-80
2023/07/08 06:43:53;;;;;;;9.27;8.20;;;;;;;23.87;71.06;95174.28;5113342;28;20439;-80
2023/07/08 06:46:20;;;;;;;15.80;10.80;;;;;;;23.60;72.80;95164.56;5113754;28;20466;-80
2023/07/08 06:48:48;;;;;;;10.73;9.63;;;;;;;23.53;73.10;95167.19;5113410;28;21014;-81
2023/07/08 06:51:15;;;;;;;15.37;9.37;;;;;;;23.34;73.16;95168.78;5113700;28;20465;-80
2023/07/08 06:53:42;;;;;;;13.90;8.97;;;;;;;23.18;73.41;95182.56;5113464;28;20433;-80
2023/07/08 06:56:09;;;;;;;11.70;9.07;;;;;;;23.12;74.57;95178.81;5061389;28;20953;-81
2023/07/08 06:58:36;;;;;;;10.20;9.20;;;;;;;22.91;75.20;95175.44;5114268;28;20922;-80
2023/07/08 07:01:03;;;;;;;9.93;9.00;;;;;;;22.92;75.72;95179.78;5117675;28;20455;-78
2023/07/08 07:03:30;;;;;;;13.67;9.40;;;;;;;22.84;76.25;95186.94;5117737;28;20442;-81
2023/07/08 07:05:58;;;;;;;10.40;9.40;;;;;;;22.85;76.70;95188.59;5117762;28;20823;-81
2023/07/08 07:08:25;;;;;;;12.03;8.70;;;;;;;22.82;75.55;95177.44;5117689;28;20446;-80
2023/07/08 07:10:51;;;;;;;10.30;8.97;;;;;;;22.81;75.39;95170.44;5116970;28;20973;-81
2023/07/08 07:13:18;;;;;;;12.07;7.90;;;;;;;22.69;74.17;95183.53;5117164;28;20441;-81
2023/07/08 07:15:45;;;;;;;9.70;8.70;;;;;;;22.75;74.54;95182.72;5064925;28;20443;-81
2023/07/08 07:18:12;;;;;;;9.33;7.43;;;;;;;22.69;72.95;95193.41;5064759;28;20486;-80
2023/07/08 07:20:39;;;;;;;9.20;8.30;;;;;;;22.55;73.44;95187.13;5116940;28;20465;-80
2023/07/08 07:23:07;;;;;;;8.53;7.73;;;;;;;22.50;73.87;95178.88;5117160;28;20444;-80
2023/07/08 07:25:34;;;;;;;9.40;8.43;;;;;;;22.46;74.14;95191.00;5116776;28;20453;-81
2023/07/08 07:28:01;;;;;;;10.23;8.03;;;;;;;22.50;72.96;95194.94;5117093;28;20858;-81
2023/07/08 07:30:28;;;;;;;8.77;7.97;;;;;;;22.47;74.25;95195.31;5117026;28;20443;-79
2023/07/08 07:32:54;;;;;;;8.93;8.17;;;;;;;22.52;74.51;95192.88;5116992;28;20444;-81
2023/07/08 07:35:22;;;;;;;16.23;9.30;;;;;;;22.45;73.73;95200.88;5116852;28;20479;-80
2023/07/08 07:37:49;;;;;;;11.13;8.23;;;;;;;22.49;74.13;95207.47;5117429;28;20480;-79
2023/07/08 07:40:17;;;;;;;11.03;9.73;;;;;;;22.47;73.39;95206.84;5117060;28;20440;-80
2023/07/08 07:42:46;;;;;;;10.10;9.03;;;;;;;22.41;74.02;95207.63;5117161;28;20530;-77
2023/07/08 07:45:14;;;;;;;9.83;8.83;;;;;;;22.54;74.84;95202.34;5116771;28;20442;-80
2023/07/08 07:47:41;;;;;;;12.80;9.10;;;;;;;22.86;73.41;95210.84;5116953;28;20455;-80
2023/07/08 07:50:09;;;;;;;10.43;9.40;;;;;;;23.28;73.84;95209.78;5116614;28;20828;-79
2023/07/08 07:52:36;;;;;;;15.97;8.40;;;;;;;23.43;71.64;95212.31;5116738;28;20445;-80
2023/07/08 07:55:04;;;;;;;10.87;9.70;;;;;;;23.33;72.04;95191.25;5117016;28;20498;-79
2023/07/08 07:57:32;;;;;;;9.80;8.90;;;;;;;23.42;71.18;95194.59;5116258;28;20463;-80
2023/07/08 07:59:59;;;;;;;9.30;8.43;;;;;;;23.41;71.74;95193.72;5116552;28;20507;-79
2023/07/08 08:02:26;;;;;;;10.63;9.37;;;;;;;23.68;70.91;95200.00;5116332;28;20437;-78
2023/07/08 08:04:53;;;;;;;14.90;10.13;;;;;;;24.00;68.35;95203.78;5116171;28;20449;-80
2023/07/08 08:07:20;;;;;;;10.57;9.53;;;;;;;24.28;68.75;95210.81;5116154;28;20454;-79
2023/07/08 08:09:46;;;;;;;7.57;6.87;;;;;;;24.52;66.94;95194.09;5115340;28;20464;-80
2023/07/08 08:12:13;;;;;;;9.50;8.53;;;;;;;24.71;66.74;95206.66;5115570;28;20868;-79
2023/07/08 08:14:42;;;;;;;12.00;8.27;;;;;;;24.89;65.36;95192.59;5116001;28;20452;-80
2023/07/08 08:17:08;;;;;;;9.47;8.47;;;;;;;25.07;65.65;95202.66;5120138;28;20435;-81
2023/07/08 08:19:35;;;;;;;10.77;7.60;;;;;;;25.29;63.93;95206.72;5116846;28;20478;-81
2023/07/08 08:22:02;;;;;;;8.97;8.07;;;;;;;25.45;62.90;95212.66;5116920;28;20442;-82
2023/07/08 08:24:29;;;;;;;9.53;8.43;;;;;;;25.50;63.00;95202.06;5117291;28;20439;-80
2023/07/08 08:26:56;;;;;;;9.27;8.30;;;;;;;25.61;62.60;95212.97;5116973;28;20828;-80
2023/07/08 08:29:23;;;;;;;9.50;8.60;;;;;;;25.78;62.42;95207.13;5117178;28;20443;-80
2023/07/08 08:31:51;;;;;;;9.50;8.20;;;;;;;25.95;62.35;95200.16;5117010;28;20818;-80
2023/07/08 08:34:18;;;;;;;8.90;8.10;;;;;;;26.04;61.48;95198.06;5116812;28;20487;-80
2023/07/08 08:36:44;;;;;;;8.60;7.80;;;;;;;25.87;61.60;95189.69;5116949;28;20478;-80
2023/07/08 08:39:11;;;;;;;10.90;8.50;;;;;;;25.86;61.11;95188.84;5116280;28;20474;-80
2023/07/08 08:41:41;;;;;;;11.07;8.33;;;;;;;25.91;62.04;95190.88;5116489;28;20847;-79
2023/07/08 08:44:14;;;;;;;10.00;8.87;;;;;;;26.04;61.75;95196.19;5115709;28;20941;-79
2023/07/08 08:46:46;;;;;;;10.10;7.50;;;;;;;26.05;61.59;95194.31;5115910;28;20454;-80
2023/07/08 08:49:25;;;;;;;8.40;7.60;;;;;;;25.92;61.11;95192.53;5065731;28;20446;-80
2023/07/08 08:51:53;;;;;;;7.80;6.90;;;;;;;26.04;61.14;95200.75;5115890;28;20450;-80
2023/07/08 08:54:20;;;;;;;8.67;7.90;;;;;;;25.97;61.09;95190.00;5115612;28;20458;-79
2023/07/08 08:56:58;;;;;;;8.17;7.37;;;;;;;26.10;60.29;95189.09;5118329;28;20515;-80
2023/07/08 08:59:33;;;;;;;15.17;8.90;;;;;;;26.12;60.79;95190.53;5115846;28;20486;-80
2023/07/08 09:02:01;;;;;;;10.70;8.03;;;;;;;26.07;61.04;95193.06;5115811;28;20486;-81
2023/07/08 09:04:35;;;;;;;9.77;8.80;;;;;;;26.08;61.75;95202.78;5115914;28;20447;-81
2023/07/08 09:07:07;;;;;;;8.20;7.50;;;;;;;25.89;61.15;95192.97;5114973;28;20443;-81
2023/07/08 09:09:39;;;;;;;8.23;7.37;;;;;;;25.81;60.33;95191.38;5115245;28;20447;-78
2023/07/08 09:12:13;;;;;;;12.40;7.77;;;;;;;25.70;62.08;95197.44;5114718;28;20443;-79
2023/07/08 09:14:40;;;;;;;11.47;8.17;;;;;;;25.81;61.64;95195.94;5078838;28;20454;-81
2023/07/08 09:17:18;;;;;;;8.70;7.90;;;;;;;25.98;61.55;95193.53;5115218;28;20447;-80
2023/07/08 09:19:51;;;;;;;8.60;7.73;;;;;;;26.02;62.02;95198.28;5062419;28;20550;-79
2023/07/08 09:22:22;;;;;;;7.97;7.17;;;;;;;26.15;60.22;95183.88;5115193;28;20443;-81
2023/07/08 09:24:52;;;;;;;8.10;7.40;;;;;;;26.04;59.54;95190.00;5115763;28;20434;-80
2023/07/08 09:27:19;;;;;;;11.67;7.60;;;;;;;26.08;60.50;95181.25;5115303;28;20818;-80
2023/07/08 09:29:47;;;;;;;9.17;8.23;;;;;;;26.20;60.49;95178.66;5115576;28;20447;-81
2023/07/08 09:32:17;;;;;;;8.83;8.03;;;;;;;26.32;61.27;95193.06;5115355;28;20515;-81
2023/07/08 09:34:47;;;;;;;8.70;7.80;;;;;;;26.17;59.04;95179.09;5115307;28;20511;-80
2023/07/08 09:37:24;;;;;;;7.60;6.80;;;;;;;26.16;59.97;95186.34;5115031;28;20439;-81
2023/07/08 09:39:56;;;;;;;8.20;7.03;;;;;;;26.23;59.94;95180.91;5114797;28;20483;-79
2023/07/08 09:42:26;;;;;;;9.90;8.90;;;;;;;26.13;60.35;95184.09;5114869;28;20446;-78
2023/07/08 09:44:57;;;;;;;28.73;8.57;;;;;;;26.25;60.48;95162.69;5115016;28;20439;-80
2023/07/08 09:47:28;;;;;;;12.60;8.03;;;;;;;26.11;59.38;95177.31;5078866;28;20433;-80
2023/07/08 09:49:57;;;;;;;7.70;7.00;;;;;;;26.01;59.74;95174.25;5115384;28;21014;-80
2023/07/08 09:52:24;;;;;;;8.53;7.70;;;;;;;25.90;59.19;95168.56;5115006;28;20443;-81
2023/07/08 09:54:51;;;;;;;8.67;7.67;;;;;;;25.98;60.68;95180.06;5115371;28;20443;-81
2023/07/08 09:57:28;;;;;;;8.47;7.27;;;;;;;25.81;59.18;95169.88;5115262;28;20454;-80
2023/07/08 10:00:01;;;;;;;8.07;7.27;;;;;;;25.76;60.46;95160.81;5113890;28;20478;-80
2023/07/08 10:02:37;;;;;;;7.83;7.07;;;;;;;25.71;60.80;95168.69;5114382;28;20474;-80
2023/07/08 10:05:15;;;;;;;6.57;5.97;;;;;;;25.78;60.96;95161.41;5114641;28;20447;-81
2023/07/08 10:07:42;;;;;;;8.33;7.37;;;;;;;25.81;59.71;95169.03;5114730;28;20485;-80
2023/07/08 10:10:15;;;;;;;8.73;7.83;;;;;;;25.85;60.14;95175.63;5114926;28;20439;-80
2023/07/08 10:12:55;;;;;;;8.00;7.30;;;;;;;25.88;60.05;95162.56;5115243;28;20492;-81
2023/07/08 10:15:32;;;;;;;8.60;7.10;;;;;;;25.99;60.75;95155.66;5113995;28;20435;-81
2023/07/08 10:17:59;;;;;;;8.27;6.53;;;;;;;26.01;60.10;95160.81;5113666;28;20447;-79
2023/07/08 10:20:37;;;;;;;8.57;7.77;;;;;;;25.97;59.02;95157.75;5114135;28;20493;-80
2023/07/08 10:23:18;;;;;;;7.13;6.30;;;;;;;25.94;57.92;95159.00;5114021;28;20804;-80
2023/07/08 10:25:59;;;;;;;9.30;7.57;;;;;;;26.00;58.91;95151.91;5080050;28;20447;-81
2023/07/08 10:28:34;;;;;;;10.33;8.27;;;;;;;26.09;60.09;95145.25;5113579;28;20787;-80
2023/07/08 10:31:12;;;;;;;7.30;6.70;;;;;;;26.33;60.53;95146.28;5113689;28;20473;-80
2023/07/08 10:33:51;;;;;;;7.30;6.60;;;;;;;26.37;57.68;95142.13;5113396;28;20499;-80
2023/07/08 10:36:30;;;;;;;6.53;6.00;;;;;;;26.39;57.88;95145.41;5114180;28;20466;-80
2023/07/08 10:39:19;;;;;;;7.37;6.67;;;;;;;26.36;58.84;95134.28;5113009;28;21031;-81
2023/07/08 10:41:58;;;;;;;8.47;6.30;;;;;;;26.37;57.95;95120.59;5113676;28;20443;-80
2023/07/08 10:44:33;;;;;;;6.67;5.63;;;;;;;26.40;57.58;95136.31;5113441;28;20505;-80
2023/07/08 10:47:11;;;;;;;7.13;6.50;;;;;;;26.39;57.36;95133.84;5077563;28;20450;-80
2023/07/08 10:49:52;;;;;;;6.60;6.00;;;;;;;26.36;57.74;95134.28;5113239;28;20873;-80
2023/07/08 10:52:45;;;;;;;7.00;6.30;;;;;;;26.38;57.90;95129.50;5113363;28;20435;-80
2023/07/08 10:55:21;;;;;;;8.27;7.33;;;;;;;26.44;58.66;95123.22;5113412;28;20446;-81
2023/07/08 10:58:15;;;;;;;8.40;6.90;;;;;;;26.53;59.23;95114.63;5113105;28;20466;-81
2023/07/08 11:00:52;;;;;;;9.47;7.40;;;;;;;26.64;58.11;95115.75;5113292;28;20442;-79
2023/07/08 11:03:54;;;;;;;6.40;5.80;;;;;;;26.71;55.92;95111.13;5113311;28;20864;-81
2023/07/08 11:06:25;;;;;;;6.37;5.87;;;;;;;26.62;55.48;95106.28;5117291;28;20438;-79
2023/07/08 11:08:59;;;;;;;6.30;5.40;;;;;;;26.64;55.21;95101.47;5077171;28;20443;-81
2023/07/08 11:11:35;;;;;;;6.73;6.23;;;;;;;26.70;55.77;95095.19;5112877;28;20446;-81
2023/07/08 11:14:11;;;;;;;7.20;6.50;;;;;;;26.80;56.40;95108.94;5112822;28;20445;-81
2023/07/08 11:16:42;;;;;;;6.77;6.17;;;;;;;26.82;55.32;95113.06;5113215;28;20512;-80
2023/07/08 11:19:14;;;;;;;7.00;6.30;;;;;;;26.81;54.76;95107.91;5112813;28;20485;-79
2023/07/08 11:21:45;;;;;;;6.03;5.43;;;;;;;26.72;54.85;95106.56;5113965;28;20525;-81
2023/07/08 11:24:21;;;;;;;7.27;6.50;;;;;;;26.68;56.12;95099.97;5112826;28;20544;-80
2023/07/08 11:26:53;;;;;;;6.77;6.17;;;;;;;26.83;56.96;95097.72;5113161;28;20791;-79
2023/07/08 11:29:23;;;;;;;9.27;7.53;;;;;;;26.99;56.75;95096.31;5112808;28;20446;-81
2023/07/08 11:31:51;;;;;;;7.83;6.90;;;;;;;27.05;55.36;95093.53;5113210;28;20466;-78
2023/07/08 11:34:19;;;;;;;7.73;7.10;;;;;;;27.10;56.13;95092.84;5112740;28;20532;-79